createdAt,value
2022-12-11T00:01:56.024Z,8.46
2022-12-11T00:04:23.689Z,8.53
2022-12-11T00:06:51.371Z,8.51
2022-12-11T00:09:19.433Z,8.48
2022-12-11T00:11:47.348Z,8.60
2022-12-11T00:14:15.607Z,8.68
2022-12-11T00:16:42.891Z,8.74
2022-12-11T00:19:11.033Z,8.84
2022-12-11T00:22:03.709Z,8.93
2022-12-11T00:24:30.935Z,9.09
2022-12-11T00:26:57.772Z,9.16
2022-12-11T00:29:24.635Z,9.28
2022-12-11T00:31:51.548Z,9.35
2022-12-11T00:34:19.765Z,9.35
2022-12-11T00:36:46.639Z,9.33
2022-12-11T00:39:13.580Z,9.33
2022-12-11T00:41:40.711Z,9.33
2022-12-11T00:44:07.524Z,9.26
2022-12-11T00:46:34.607Z,9.18
2022-12-11T00:49:01.730Z,9.06
2022-12-11T00:51:30.251Z,9.06
2022-12-11T00:53:57.632Z,9.06
2022-12-11T00:56:24.665Z,9.12
2022-12-11T00:58:51.615Z,9.23
2022-12-11T01:01:22.351Z,9.35
2022-12-11T01:03:50.162Z,9.53
2022-12-11T01:06:20.675Z,9.69
2022-12-11T01:08:49.367Z,9.79
2022-12-11T01:11:16.850Z,9.80
2022-12-11T01:13:43.821Z,9.80
2022-12-11T01:16:14.948Z,9.81
2022-12-11T01:18:42.820Z,9.79
2022-12-11T01:21:12.490Z,9.73
2022-12-11T01:23:40.400Z,9.66
2022-12-11T01:26:12.584Z,9.54
2022-12-11T01:28:39.894Z,9.40
2022-12-11T01:31:09.360Z,9.28
2022-12-11T01:33:36.540Z,8.98
2022-12-11T01:36:08.692Z,8.89
2022-12-11T01:38:35.550Z,8.74
2022-12-11T01:41:03.164Z,8.72
2022-12-11T01:43:31.704Z,8.71
2022-12-11T01:45:59.201Z,8.67
2022-12-11T01:48:31.276Z,8.53
2022-12-11T01:51:02.605Z,8.53
2022-12-11T01:53:34.992Z,8.51
2022-12-11T01:56:04.345Z,8.50
2022-12-11T01:58:38.636Z,8.54
2022-12-11T02:01:09.002Z,8.55
2022-12-11T02:03:35.815Z,8.58
2022-12-11T02:06:03.051Z,8.65
2022-12-11T02:08:30.056Z,8.65
2022-12-11T02:11:11.431Z,8.67
2022-12-11T02:13:46.083Z,8.54
2022-12-11T02:16:24.761Z,8.46
2022-12-11T02:19:02.450Z,8.46
2022-12-11T02:21:37.403Z,8.40
2022-12-11T02:24:24.900Z,8.37
2022-12-11T02:27:26.799Z,8.17
2022-12-11T02:30:02.792Z,8.09
2022-12-11T02:32:37.128Z,8.19
2022-12-11T02:35:15.031Z,8.30
2022-12-11T02:37:47.015Z,8.38
2022-12-11T02:40:20.367Z,8.44
2022-12-11T02:42:49.773Z,8.51
2022-12-11T02:45:20.515Z,8.55
2022-12-11T02:47:50.335Z,8.55
2022-12-11T02:50:21.899Z,8.63
2022-12-11T02:52:53.595Z,8.65
2022-12-11T02:55:23.283Z,8.54
2022-12-11T02:57:59.872Z,8.43
2022-12-11T03:00:28.864Z,8.36
2022-12-11T03:02:57.419Z,8.29
2022-12-11T03:05:24.673Z,8.33
2022-12-11T03:07:51.647Z,8.43
2022-12-11T03:10:19.934Z,8.54
2022-12-11T03:12:59.423Z,8.68
2022-12-11T03:15:51.467Z,8.81
2022-12-11T03:18:32.923Z,8.84
2022-12-11T03:21:07.132Z,8.87
2022-12-11T03:23:42.167Z,8.89
2022-12-11T03:26:13.362Z,8.91
2022-12-11T03:28:47.166Z,8.92
2022-12-11T03:31:25.438Z,8.97
2022-12-11T03:34:02.240Z,8.97
2022-12-11T03:36:35.099Z,8.98
2022-12-11T03:39:07.809Z,8.99
2022-12-11T03:41:38.393Z,8.99
2022-12-11T03:44:06.599Z,8.98
2022-12-11T03:46:40.131Z,9.01
2022-12-11T03:49:14.913Z,9.01
2022-12-11T03:51:45.055Z,8.99
2022-12-11T03:54:12.744Z,8.99
2022-12-11T03:56:42.885Z,8.98
2022-12-11T03:59:10.128Z,8.97
2022-12-11T04:01:38.479Z,8.93
2022-12-11T04:04:05.930Z,8.92
2022-12-11T04:06:32.941Z,8.85
2022-12-11T04:08:59.785Z,8.82
2022-12-11T04:11:26.564Z,8.81
2022-12-11T04:13:53.480Z,8.75
2022-12-11T04:16:20.285Z,8.65
2022-12-11T04:19:13.283Z,8.60
2022-12-11T04:21:40.128Z,8.55
2022-12-11T04:24:07.929Z,8.54
2022-12-11T04:26:34.793Z,8.53
2022-12-11T04:29:01.734Z,8.50
2022-12-11T04:31:30.119Z,8.44
2022-12-11T04:33:57.191Z,8.44
2022-12-11T04:36:25.343Z,8.41
2022-12-11T04:38:52.255Z,8.34
2022-12-11T04:41:20.715Z,8.34
2022-12-11T04:43:47.599Z,8.24
2022-12-11T04:46:17.897Z,8.26
2022-12-11T04:48:46.341Z,8.22
2022-12-11T04:51:14.889Z,8.17
2022-12-11T04:53:43.522Z,8.16
2022-12-11T04:56:15.483Z,8.10
2022-12-11T04:58:44.345Z,8.06
2022-12-11T05:01:13.810Z,8.06
2022-12-11T05:03:41.517Z,8.00
2022-12-11T05:06:12.008Z,7.99
2022-12-11T05:08:42.043Z,7.95
2022-12-11T05:11:13.905Z,7.92
2022-12-11T05:13:41.977Z,7.86
2022-12-11T05:16:11.823Z,7.83
2022-12-11T05:18:39.436Z,7.81
2022-12-11T05:21:09.252Z,7.76
2022-12-11T05:24:00.870Z,7.72
2022-12-11T05:26:29.717Z,7.71
2022-12-11T05:28:57.029Z,7.68
2022-12-11T05:31:27.273Z,7.71
2022-12-11T05:33:54.561Z,7.64
2022-12-11T05:36:24.341Z,7.62
2022-12-11T05:38:52.994Z,7.61
2022-12-11T05:41:23.296Z,7.55
2022-12-11T05:43:52.394Z,7.52
2022-12-11T05:46:22.676Z,7.48
2022-12-11T05:48:52.441Z,7.48
2022-12-11T05:51:20.444Z,7.47
2022-12-11T05:53:54.158Z,7.44
2022-12-11T05:56:24.589Z,7.42
2022-12-11T05:58:54.275Z,7.41
2022-12-11T06:01:25.010Z,7.38
2022-12-11T06:03:53.407Z,7.38
2022-12-11T06:06:20.687Z,7.35
2022-12-11T06:08:50.328Z,7.32
2022-12-11T06:11:23.619Z,7.30
2022-12-11T06:13:52.942Z,7.28
2022-12-11T06:16:25.307Z,7.24
2022-12-11T06:19:02.222Z,7.21
2022-12-11T06:24:40.120Z,7.15
2022-12-11T06:27:15.455Z,7.14
2022-12-11T06:29:50.097Z,7.11
2022-12-11T06:32:22.137Z,7.10
2022-12-11T06:34:59.000Z,7.05
2022-12-11T06:37:36.800Z,7.00
2022-12-11T06:40:13.878Z,6.96
2022-12-11T06:42:50.597Z,6.91
2022-12-11T06:45:28.209Z,6.90
2022-12-11T06:47:58.427Z,6.90
2022-12-11T06:50:33.886Z,6.90
2022-12-11T06:53:05.406Z,6.87
2022-12-11T06:55:41.470Z,6.87
2022-12-11T06:58:17.154Z,6.83
2022-12-11T07:00:49.033Z,6.83
2022-12-11T07:03:24.798Z,6.84
2022-12-11T07:06:00.818Z,6.84
2022-12-11T07:08:36.472Z,6.68
2022-12-11T07:11:16.491Z,6.56
2022-12-11T07:13:47.466Z,6.53
2022-12-11T07:16:21.707Z,6.53
2022-12-11T07:18:56.960Z,6.53
2022-12-11T07:21:31.763Z,6.54
2022-12-11T07:24:04.854Z,6.50
2022-12-11T07:26:38.755Z,6.40
2022-12-11T07:29:14.714Z,6.22
2022-12-11T07:31:53.152Z,5.98
2022-12-11T07:34:26.758Z,5.88
2022-12-11T07:37:02.059Z,5.84
2022-12-11T07:39:38.926Z,5.83
2022-12-11T07:42:13.704Z,5.77
2022-12-11T07:44:46.971Z,5.75
2022-12-11T07:47:25.282Z,5.67
2022-12-11T07:50:00.447Z,5.67
2022-12-11T07:52:35.252Z,5.71
2022-12-11T07:55:12.009Z,5.81
2022-12-11T07:57:49.283Z,5.86
2022-12-11T08:00:26.146Z,5.88
2022-12-11T08:02:54.515Z,5.83
2022-12-11T08:05:24.170Z,5.88
2022-12-11T08:08:03.100Z,5.94
2022-12-11T08:10:30.179Z,6.04
2022-12-11T08:12:57.994Z,6.15
2022-12-11T08:15:28.958Z,6.28
2022-12-11T08:18:05.987Z,6.43
2022-12-11T08:20:33.404Z,6.53
2022-12-11T08:23:00.951Z,6.65
2022-12-11T08:25:37.503Z,6.69
2022-12-11T08:28:14.607Z,6.65
2022-12-11T08:30:50.179Z,6.60
2022-12-11T08:33:29.496Z,6.62
2022-12-11T08:36:03.115Z,6.69
2022-12-11T08:38:30.135Z,6.76
2022-12-11T08:40:57.132Z,6.83
2022-12-11T08:43:30.492Z,6.94
2022-12-11T08:45:59.696Z,7.05
2022-12-11T08:48:29.313Z,7.20
2022-12-11T08:51:00.137Z,7.36
2022-12-11T08:53:35.174Z,7.52
2022-12-11T08:56:16.102Z,7.66
2022-12-11T08:58:53.876Z,7.73
2022-12-11T09:01:31.041Z,7.82
2022-12-11T09:04:09.389Z,7.93
2022-12-11T09:06:45.415Z,8.06
2022-12-11T09:09:22.415Z,8.24
2022-12-11T09:11:49.622Z,8.38
2022-12-11T09:14:26.634Z,8.51
2022-12-11T09:17:04.255Z,8.65
2022-12-11T09:19:32.767Z,8.81
2022-12-11T09:21:59.861Z,8.92
2022-12-11T09:24:26.610Z,9.09
2022-12-11T09:26:53.972Z,9.23
2022-12-11T09:29:21.128Z,9.38
2022-12-11T09:31:48.088Z,9.54
2022-12-11T09:34:14.857Z,9.69
2022-12-11T09:36:43.167Z,9.86
2022-12-11T09:39:12.596Z,10.01
2022-12-11T09:41:47.839Z,10.20
2022-12-11T09:44:38.126Z,10.34
2022-12-11T09:47:20.043Z,10.48
2022-12-11T09:49:51.035Z,10.61
2022-12-11T09:52:26.535Z,10.76
2022-12-11T09:54:59.476Z,10.88
2022-12-11T09:57:47.333Z,11.00
2022-12-11T10:00:22.304Z,11.04
2022-12-11T10:03:23.663Z,11.16
2022-12-11T10:06:04.022Z,11.30
2022-12-11T10:08:48.408Z,11.40
2022-12-11T10:11:42.468Z,11.51
2022-12-11T10:14:25.815Z,11.65
2022-12-11T10:17:02.255Z,11.77
2022-12-11T10:19:32.101Z,11.88
2022-12-11T10:22:02.176Z,11.94
2022-12-11T10:27:40.968Z,12.02
2022-12-11T10:30:19.395Z,12.13
2022-12-11T10:33:06.487Z,12.29
2022-12-11T10:35:49.772Z,12.45
2022-12-11T10:38:30.128Z,12.60
2022-12-11T10:41:20.008Z,12.67
2022-12-11T10:43:57.085Z,12.56
2022-12-11T10:46:30.632Z,12.53
2022-12-11T10:49:01.416Z,12.59
2022-12-11T10:51:38.827Z,12.49
2022-12-11T10:54:17.288Z,12.47
2022-12-11T10:56:48.856Z,12.60
2022-12-11T10:59:24.318Z,12.68
2022-12-11T11:01:51.864Z,12.84
2022-12-11T11:04:27.894Z,13.04
2022-12-11T11:07:12.098Z,13.19
2022-12-11T11:09:48.313Z,13.25
2022-12-11T11:12:27.805Z,13.21
2022-12-11T11:15:02.400Z,13.12
2022-12-11T11:17:52.958Z,13.17
2022-12-11T11:20:28.765Z,13.29
2022-12-11T11:23:11.281Z,13.42
2022-12-11T11:25:51.747Z,13.59
2022-12-11T11:28:23.946Z,13.76
2022-12-11T11:31:04.918Z,13.89
2022-12-11T11:33:35.145Z,13.97
2022-12-11T11:36:05.537Z,13.86
2022-12-11T11:38:36.888Z,13.69
2022-12-11T11:41:19.951Z,13.39
2022-12-11T11:43:51.936Z,13.05
2022-12-11T11:46:25.155Z,12.83
2022-12-11T11:49:03.675Z,12.70
2022-12-11T11:51:37.525Z,12.70
2022-12-11T11:54:28.601Z,12.72
2022-12-11T11:56:58.835Z,12.67
2022-12-11T11:59:37.059Z,12.73
2022-12-11T12:02:16.430Z,12.74
2022-12-11T12:04:53.690Z,12.73
2022-12-11T12:07:39.058Z,12.84
2022-12-11T12:10:26.123Z,12.95
2022-12-11T12:13:06.054Z,12.95
2022-12-11T12:15:57.038Z,12.83
2022-12-11T12:18:41.596Z,12.74
2022-12-11T12:21:22.968Z,12.60
2022-12-11T12:24:17.814Z,12.57
2022-12-11T12:26:54.721Z,12.53
2022-12-11T12:29:43.310Z,12.53
2022-12-11T12:32:23.144Z,12.56
2022-12-11T12:35:07.518Z,12.56
2022-12-11T12:37:56.123Z,12.56
2022-12-11T12:40:32.388Z,12.40
2022-12-11T12:43:31.500Z,12.33
2022-12-11T12:46:13.145Z,12.28
2022-12-11T12:48:41.990Z,12.22
2022-12-11T12:51:14.647Z,12.19
2022-12-11T12:53:47.209Z,12.09
2022-12-11T12:56:15.468Z,12.01
2022-12-11T12:58:45.963Z,11.95
2022-12-11T13:01:18.982Z,11.88
2022-12-11T13:03:55.963Z,11.85
2022-12-11T13:06:34.126Z,11.79
2022-12-11T13:09:15.610Z,11.70
2022-12-11T13:11:43.842Z,11.58
2022-12-11T13:14:27.878Z,11.54
2022-12-11T13:17:22.514Z,11.50
2022-12-11T13:20:09.256Z,11.48
2022-12-11T13:22:54.790Z,11.40
2022-12-11T13:25:28.578Z,11.33
2022-12-11T13:28:07.320Z,11.28
2022-12-11T13:30:34.780Z,11.27
2022-12-11T13:33:05.909Z,11.26
2022-12-11T13:35:35.490Z,11.19
2022-12-11T13:38:07.814Z,11.16
2022-12-11T13:40:41.518Z,11.12
2022-12-11T13:43:20.114Z,11.07
2022-12-11T13:45:51.362Z,11.03
2022-12-11T13:48:23.522Z,11.06
2022-12-11T13:50:53.907Z,11.02
2022-12-11T13:53:22.164Z,11.06
2022-12-11T13:55:57.512Z,11.10
2022-12-11T13:58:25.174Z,11.10
2022-12-11T14:03:56.984Z,11.06
2022-12-11T14:06:27.993Z,11.02
2022-12-11T14:09:00.436Z,11.06
2022-12-11T14:11:30.071Z,11.02
2022-12-11T14:14:00.314Z,10.99
2022-12-11T14:16:27.649Z,11.03
2022-12-11T14:19:00.787Z,11.03
2022-12-11T14:21:29.042Z,11.06
2022-12-11T14:23:59.742Z,11.09
2022-12-11T14:26:29.092Z,11.02
2022-12-11T14:28:56.484Z,11.00
2022-12-11T14:31:29.883Z,11.12
2022-12-11T14:34:04.738Z,11.14
2022-12-11T14:36:35.632Z,11.20
2022-12-11T14:39:07.736Z,11.23
2022-12-11T14:41:45.727Z,11.28
2022-12-11T14:44:16.976Z,11.30
2022-12-11T14:46:50.219Z,11.35
2022-12-11T14:49:25.206Z,11.41
2022-12-11T14:51:56.990Z,11.44
2022-12-11T14:54:33.022Z,11.38
2022-12-11T14:57:02.800Z,11.33
2022-12-11T14:59:32.554Z,11.33
2022-12-11T15:02:02.958Z,11.34
2022-12-11T15:04:32.806Z,11.34
2022-12-11T15:07:01.158Z,11.37
2022-12-11T15:09:37.260Z,11.41
2022-12-11T15:12:12.527Z,11.41
2022-12-11T15:14:48.478Z,11.43
2022-12-11T15:17:16.476Z,11.41
2022-12-11T15:19:49.539Z,11.43
2022-12-11T15:22:21.240Z,11.38
2022-12-11T15:27:44.390Z,11.37
2022-12-11T15:30:34.473Z,11.45
2022-12-11T15:33:18.447Z,11.43
2022-12-11T15:36:02.837Z,11.40
2022-12-11T15:38:35.611Z,11.35
2022-12-11T15:41:04.015Z,11.33
2022-12-11T15:43:37.662Z,11.33
2022-12-11T15:46:06.193Z,11.31
2022-12-11T15:48:34.007Z,11.30
2022-12-11T15:51:00.845Z,11.27
2022-12-11T15:53:27.634Z,11.24
2022-12-11T15:55:58.750Z,11.23
2022-12-11T15:58:26.247Z,11.19
2022-12-11T16:00:53.757Z,11.13
2022-12-11T16:03:23.165Z,11.13
2022-12-11T16:05:51.428Z,11.04
2022-12-11T16:08:21.754Z,11.04
2022-12-11T16:10:50.744Z,11.00
2022-12-11T16:13:18.959Z,11.00
2022-12-11T16:15:50.788Z,11.02
2022-12-11T16:18:21.310Z,10.96
2022-12-11T16:20:50.040Z,10.95
2022-12-11T16:23:17.721Z,10.95
2022-12-11T16:25:45.964Z,10.95
2022-12-11T16:28:15.933Z,10.90
2022-12-11T16:30:44.944Z,10.90
2022-12-11T16:33:13.600Z,10.84
2022-12-11T16:35:40.892Z,10.83
2022-12-11T16:38:07.696Z,10.82
2022-12-11T16:40:34.582Z,10.83
2022-12-11T16:43:03.123Z,10.79
2022-12-11T16:45:30.348Z,10.76
2022-12-11T16:47:58.579Z,10.75
2022-12-11T16:50:25.750Z,10.71
2022-12-11T16:52:52.492Z,10.72
2022-12-11T16:55:19.328Z,10.71
2022-12-11T16:57:46.209Z,10.69
2022-12-11T17:00:14.167Z,10.68
2022-12-11T17:02:41.670Z,10.65
2022-12-11T17:05:10.864Z,10.63
2022-12-11T17:07:38.224Z,10.66
2022-12-11T17:10:06.176Z,10.59
2022-12-11T17:12:32.902Z,10.61
2022-12-11T17:14:59.995Z,10.58
2022-12-11T17:17:27.006Z,10.59
2022-12-11T17:19:55.931Z,10.56
2022-12-11T17:22:24.096Z,10.59
2022-12-11T17:24:50.867Z,10.58
2022-12-11T17:27:17.596Z,10.63
2022-12-11T17:29:44.525Z,10.63
2022-12-11T17:32:11.270Z,10.66
2022-12-11T17:34:38.821Z,10.63
2022-12-11T17:37:06.208Z,10.68
2022-12-11T17:39:34.400Z,10.69
2022-12-11T17:42:02.358Z,10.69
2022-12-11T17:44:29.389Z,10.69
2022-12-11T17:46:56.676Z,10.68
2022-12-11T17:49:25.672Z,10.63
2022-12-11T17:51:53.476Z,10.66
2022-12-11T17:54:20.186Z,10.65
2022-12-11T17:56:48.536Z,10.62
2022-12-11T17:59:15.392Z,10.62
2022-12-11T18:01:44.190Z,10.65
2022-12-11T18:04:11.729Z,10.66
2022-12-11T18:06:38.701Z,10.65
2022-12-11T18:09:06.286Z,10.63
2022-12-11T18:11:33.616Z,10.63
2022-12-11T18:14:02.071Z,10.62
2022-12-11T18:16:33.192Z,10.66
2022-12-11T18:19:00.337Z,10.69
2022-12-11T18:21:30.071Z,10.66
2022-12-11T18:23:58.150Z,10.61
2022-12-11T18:26:25.264Z,10.51
2022-12-11T18:28:52.873Z,10.48
2022-12-11T18:31:23.100Z,10.46
2022-12-11T18:33:50.534Z,10.46
2022-12-11T18:36:19.843Z,10.45
2022-12-11T18:38:47.563Z,10.46
2022-12-11T18:41:19.383Z,10.49
2022-12-11T18:43:46.849Z,10.49
2022-12-11T18:46:16.357Z,10.53
2022-12-11T18:48:46.479Z,10.55
2022-12-11T18:51:17.826Z,10.55
2022-12-11T18:53:45.104Z,10.59
2022-12-11T18:59:06.038Z,10.62
2022-12-11T19:01:33.068Z,10.62
2022-12-11T19:04:04.549Z,10.62
2022-12-11T19:06:33.361Z,10.65
2022-12-11T19:09:00.324Z,10.62
2022-12-11T19:11:30.792Z,10.61
2022-12-11T19:13:58.351Z,10.58
2022-12-11T19:16:29.092Z,10.56
2022-12-11T19:19:04.035Z,10.55
2022-12-11T19:21:31.422Z,10.56
2022-12-11T19:23:58.344Z,10.59
2022-12-11T19:29:22.128Z,10.65
2022-12-11T19:31:49.551Z,10.65
2022-12-11T19:34:18.001Z,10.66
2022-12-11T19:36:45.116Z,10.62
2022-12-11T19:39:13.460Z,10.59
2022-12-11T19:41:41.590Z,10.61
2022-12-11T19:44:09.182Z,10.65
2022-12-11T19:46:36.878Z,10.68
2022-12-11T19:49:04.822Z,10.73
2022-12-11T19:51:37.571Z,10.77
2022-12-11T19:54:05.437Z,10.73
2022-12-11T19:59:25.282Z,10.76
2022-12-11T20:01:52.500Z,10.76
2022-12-11T20:04:19.648Z,10.72
2022-12-11T20:06:48.674Z,10.71
2022-12-11T20:09:16.468Z,10.71
2022-12-11T20:11:45.540Z,10.71
2022-12-11T20:14:19.680Z,10.71
2022-12-11T20:17:09.783Z,10.66
2022-12-11T20:19:33.615Z,10.65
2022-12-11T20:22:01.775Z,10.63
2022-12-11T20:24:28.716Z,10.63
2022-12-11T20:26:55.928Z,10.62
2022-12-11T20:29:48.363Z,10.61
2022-12-11T20:32:15.472Z,10.61
2022-12-11T20:34:42.216Z,10.58
2022-12-11T20:37:10.636Z,10.52
2022-12-11T20:39:37.404Z,10.48
2022-12-11T20:42:05.398Z,10.39
2022-12-11T20:44:32.675Z,10.35
2022-12-11T20:46:59.623Z,10.34
2022-12-11T20:49:26.540Z,10.32
2022-12-11T20:51:53.296Z,10.32
2022-12-11T20:54:21.706Z,10.37
2022-12-11T20:56:48.471Z,10.45
2022-12-11T20:59:15.672Z,10.52
2022-12-11T21:01:43.196Z,10.56
2022-12-11T21:04:11.147Z,10.59
2022-12-11T21:06:39.863Z,10.62
2022-12-11T21:09:10.780Z,10.66
2022-12-11T21:11:39.478Z,10.68
2022-12-11T21:14:07.105Z,10.69
2022-12-11T21:16:37.127Z,10.66
2022-12-11T21:19:05.421Z,10.66
2022-12-11T21:21:35.287Z,10.65
2022-12-11T21:24:02.464Z,10.63
2022-12-11T21:26:29.996Z,10.63
2022-12-11T21:28:58.851Z,10.61
2022-12-11T21:31:26.472Z,10.56
2022-12-11T21:33:53.678Z,10.59
2022-12-11T21:36:20.464Z,10.56
2022-12-11T21:38:47.341Z,10.58
2022-12-11T21:41:18.852Z,10.62
2022-12-11T21:45:21.169Z,10.59
2022-12-11T21:46:36.918Z,10.61
2022-12-11T21:49:03.826Z,10.55
2022-12-11T21:51:37.646Z,10.48
2022-12-11T21:54:08.477Z,10.39
2022-12-11T21:56:37.194Z,10.27
2022-12-11T21:59:04.671Z,10.17
2022-12-11T22:01:35.004Z,10.11
2022-12-11T22:04:04.725Z,10.04
2022-12-11T22:06:31.888Z,9.95
2022-12-11T22:08:58.896Z,9.89
2022-12-11T22:11:29.280Z,9.84
2022-12-11T22:13:56.676Z,9.80
2022-12-11T22:16:24.193Z,9.81
2022-12-11T22:18:51.187Z,9.84
2022-12-11T22:21:19.920Z,9.86
2022-12-11T22:23:47.642Z,9.87
2022-12-11T22:26:18.708Z,9.89
2022-12-11T22:28:45.924Z,9.89
2022-12-11T22:31:13.591Z,9.95
2022-12-11T22:33:40.698Z,10.01
2022-12-11T22:36:08.158Z,10.04
2022-12-11T22:38:37.008Z,10.07
2022-12-11T22:41:10.463Z,10.11
2022-12-11T22:44:02.830Z,10.14
2022-12-11T22:46:30.366Z,10.15
2022-12-11T22:48:57.959Z,10.22
2022-12-11T22:51:24.976Z,10.24
2022-12-11T22:53:53.074Z,10.24
2022-12-11T22:56:20.202Z,10.27
2022-12-11T22:58:47.393Z,10.25
2022-12-11T23:01:18.573Z,10.27
2022-12-11T23:03:46.073Z,10.27
2022-12-11T23:06:17.036Z,10.27
2022-12-11T23:08:44.697Z,10.25
2022-12-11T23:11:17.641Z,10.24
2022-12-11T23:13:44.431Z,10.20
2022-12-11T23:16:11.795Z,10.20
2022-12-11T23:18:38.829Z,10.22
2022-12-11T23:21:06.806Z,10.25
2022-12-11T23:23:33.874Z,10.28
2022-12-11T23:26:01.223Z,10.28
2022-12-11T23:28:29.568Z,10.30
2022-12-11T23:30:56.819Z,10.30
2022-12-11T23:33:23.959Z,10.30
2022-12-11T23:35:50.838Z,10.28
2022-12-11T23:38:18.200Z,10.30
2022-12-11T23:40:45.258Z,10.27
2022-12-11T23:43:12.309Z,10.27
2022-12-11T23:45:43.293Z,10.25
2022-12-11T23:48:10.515Z,10.17
2022-12-11T23:50:37.386Z,10.14
2022-12-11T23:53:04.361Z,10.08
2022-12-11T23:55:31.227Z,10.08
2022-12-11T23:57:58.060Z,10.02
